Time;durP1;ratioP1;P1;durP2;ratioP2;P2;SDS_P1;SDS_P2;PMS_P1;PMS_P2;Temp;Humidity;BMP_temperature;BMP_pressure;BME280_temperature;BME280_humidity;BME280_pressure;Samples;Min_cycle;Max_cycle;Signal;HPM_P1;HPM_P2
2023/01/23 00:01:59;;;;;;;26.30;10.20;;;;;;;;;;4950064;29;20027;-74
2023/01/23 00:04:25;;;;;;;22.20;11.30;;;;;;;;;;4949205;29;20515;-77
2023/01/23 00:06:51;;;;;;;22.05;10.57;;;;;;;;;;4953578;29;20034;-77
2023/01/23 00:09:17;;;;;;;22.90;10.68;;;;;;;;;;4949791;29;20031;-76
2023/01/23 00:11:43;;;;;;;24.05;11.68;;;;;;;;;;4948566;29;20039;-78
2023/01/23 00:14:10;;;;;;;31.02;11.63;;;;;;;;;;4948803;29;20057;-76
2023/01/23 00:16:36;;;;;;;22.08;11.50;;;;;;;;;;4956906;28;20102;-75
2023/01/23 00:19:02;;;;;;;26.95;13.30;;;;;;;;;;4952666;29;20035;-77
2023/01/23 00:21:28;;;;;;;26.20;8.75;;;;;;;;;;4955934;29;20028;-83
2023/01/23 00:23:55;;;;;;;22.13;11.52;;;;;;;;;;4954121;29;20023;-75
2023/01/23 00:26:24;;;;;;;24.23;11.15;;;;;;;;;;4949108;29;20081;-77
2023/01/23 00:28:51;;;;;;;20.45;8.50;;;;;;;;;;4950916;29;20046;-79
2023/01/23 00:31:17;;;;;;;24.63;11.18;;;;;;;;;;4950456;29;20389;-79
2023/01/23 00:33:43;;;;;;;21.80;11.88;;;;;;;;;;4953545;29;20062;-74
2023/01/23 00:36:10;;;;;;;16.98;8.15;;;;;;;;;;4952996;29;20079;-80
2023/01/23 00:38:36;;;;;;;19.88;9.57;;;;;;;;;;4954085;29;20513;-75
2023/01/23 00:41:02;;;;;;;24.75;9.48;;;;;;;;;;4952177;29;20046;-74
2023/01/23 00:43:29;;;;;;;19.83;9.38;;;;;;;;;;4953927;29;20275;-74
2023/01/23 00:45:55;;;;;;;18.50;8.55;;;;;;;;;;4953113;29;20110;-74
2023/01/23 00:48:21;;;;;;;19.90;8.90;;;;;;;;;;4953628;29;20050;-79
2023/01/23 00:50:47;;;;;;;22.05;10.45;;;;;;;;;;4952205;29;20646;-77
2023/01/23 00:53:13;;;;;;;21.95;9.18;;;;;;;;;;4952978;28;20397;-78
2023/01/23 00:55:40;;;;;;;21.00;9.32;;;;;;;;;;4955092;29;20094;-78
2023/01/23 00:58:07;;;;;;;22.17;10.65;;;;;;;;;;4955095;28;20029;-73
2023/01/23 01:00:33;;;;;;;18.20;8.75;;;;;;;;;;4958660;28;20027;-74
2023/01/23 01:02:59;;;;;;;20.10;9.82;;;;;;;;;;4956551;29;20027;-77
2023/01/23 01:05:25;;;;;;;19.63;9.45;;;;;;;;;;4956422;29;20106;-77
2023/01/23 01:07:51;;;;;;;18.75;9.07;;;;;;;;;;4955943;29;20381;-79
2023/01/23 01:10:17;;;;;;;22.33;10.82;;;;;;;;;;4956260;29;20595;-74
2023/01/23 01:12:43;;;;;;;19.38;9.52;;;;;;;;;;4956127;29;20038;-79
2023/01/23 01:15:09;;;;;;;18.90;9.57;;;;;;;;;;4956933;29;20400;-77
2023/01/23 01:17:36;;;;;;;20.98;8.85;;;;;;;;;;4958410;29;20030;-77
2023/01/23 01:20:02;;;;;;;21.92;9.32;;;;;;;;;;4957788;29;20031;-78
2023/01/23 01:22:28;;;;;;;20.33;9.23;;;;;;;;;;4959419;29;20047;-85
2023/01/23 01:24:54;;;;;;;20.17;8.73;;;;;;;;;;4959274;29;20387;-73
2023/01/23 01:27:20;;;;;;;17.13;7.50;;;;;;;;;;4959768;29;20027;-73
2023/01/23 01:29:46;;;;;;;23.20;10.88;;;;;;;;;;4958766;29;20404;-76
2023/01/23 01:32:12;;;;;;;20.50;9.15;;;;;;;;;;4958757;29;20546;-75
2023/01/23 01:34:38;;;;;;;20.70;9.82;;;;;;;;;;4957242;29;20038;-78
2023/01/23 01:37:04;;;;;;;20.60;11.15;;;;;;;;;;4955483;29;20055;-81
2023/01/23 01:39:30;;;;;;;16.80;8.25;;;;;;;;;;4954565;29;20055;-78
2023/01/23 01:41:56;;;;;;;21.13;10.02;;;;;;;;;;4954034;29;20085;-78
2023/01/23 01:44:23;;;;;;;23.80;9.73;;;;;;;;;;4953156;29;20504;-82
2023/01/23 01:46:49;;;;;;;22.60;12.13;;;;;;;;;;4952649;29;20023;-81
2023/01/23 01:49:20;;;;;;;24.73;12.20;;;;;;;;;;4952567;29;20111;-80
2023/01/23 01:51:46;;;;;;;20.85;11.73;;;;;;;;;;4951875;29;20508;-74
2023/01/23 01:54:29;;;;;;;24.45;10.27;;;;;;;;;;4952036;29;20073;-76
2023/01/23 01:57:00;;;;;;;26.83;10.65;;;;;;;;;;4950640;29;20523;-78
2023/01/23 01:59:29;;;;;;;27.48;12.50;;;;;;;;;;4951976;29;20097;-81
2023/01/23 02:01:57;;;;;;;28.42;13.00;;;;;;;;;;4951463;29;20499;-78
2023/01/23 02:04:23;;;;;;;24.73;11.25;;;;;;;;;;4951778;29;20148;-75
2023/01/23 02:06:50;;;;;;;25.77;12.00;;;;;;;;;;4949880;29;20485;-78
2023/01/23 02:09:21;;;;;;;29.67;14.50;;;;;;;;;;4952164;28;20028;-79
2023/01/23 02:11:47;;;;;;;24.08;10.40;;;;;;;;;;4952662;29;20035;-80
2023/01/23 02:14:13;;;;;;;24.55;11.77;;;;;;;;;;4954025;29;20047;-75
2023/01/23 02:16:45;;;;;;;23.00;11.18;;;;;;;;;;4953054;29;20023;-77
2023/01/23 02:19:27;;;;;;;26.67;11.65;;;;;;;;;;4953445;28;20046;-79
2023/01/23 02:21:55;;;;;;;24.27;11.30;;;;;;;;;;4953212;29;20035;-79
2023/01/23 02:24:47;;;;;;;27.75;10.75;;;;;;;;;;4952571;29;20024;-74
2023/01/23 02:27:13;;;;;;;26.98;11.93;;;;;;;;;;4937284;29;20050;-73
2023/01/23 02:29:43;;;;;;;29.85;12.55;;;;;;;;;;4952308;29;20019;-76
2023/01/23 02:32:10;;;;;;;30.20;12.75;;;;;;;;;;4953108;29;20269;-76
2023/01/23 02:34:36;;;;;;;24.77;11.77;;;;;;;;;;4952754;29;20074;-77
2023/01/23 02:37:02;;;;;;;26.23;14.23;;;;;;;;;;4952872;28;20565;-77
2023/01/23 02:39:28;;;;;;;32.65;12.05;;;;;;;;;;4953158;29;20070;-81
2023/01/23 02:41:55;;;;;;;28.75;14.02;;;;;;;;;;4953345;29;20030;-77
2023/01/23 02:44:26;;;;;;;21.95;9.40;;;;;;;;;;4952560;29;20155;-78
2023/01/23 02:46:52;;;;;;;24.60;11.15;;;;;;;;;;4952395;29;20034;-83
2023/01/23 02:49:19;;;;;;;28.88;13.40;;;;;;;;;;4952846;29;20366;-81
2023/01/23 02:51:45;;;;;;;29.15;15.95;;;;;;;;;;4952518;28;20380;-75
2023/01/23 02:54:11;;;;;;;30.35;12.75;;;;;;;;;;4952510;29;20051;-78
2023/01/23 02:56:37;;;;;;;22.45;11.90;;;;;;;;;;4952918;29;20054;-74
2023/01/23 03:01:48;;;;;;;28.10;12.63;;;;;;;;;;4952108;29;20033;-79
2023/01/23 03:04:14;;;;;;;34.75;15.77;;;;;;;;;;4952584;29;20085;-77
2023/01/23 03:06:40;;;;;;;29.85;13.10;;;;;;;;;;4952748;29;20411;-77
2023/01/23 03:09:08;;;;;;;29.25;12.13;;;;;;;;;;4952114;29;20028;-81
2023/01/23 03:11:35;;;;;;;28.58;11.50;;;;;;;;;;4952221;29;20030;-74
2023/01/23 03:14:01;;;;;;;23.38;9.98;;;;;;;;;;4952028;29;20559;-80
2023/01/23 03:16:27;;;;;;;33.42;14.75;;;;;;;;;;4952004;29;20484;-77
2023/01/23 03:18:53;;;;;;;21.58;12.05;;;;;;;;;;4950748;29;20202;-73
2023/01/23 03:21:20;;;;;;;30.23;12.18;;;;;;;;;;4950321;28;20595;-79
2023/01/23 03:23:47;;;;;;;21.63;10.70;;;;;;;;;;4951867;29;20031;-77
2023/01/23 03:26:13;;;;;;;22.20;9.90;;;;;;;;;;4951946;28;20387;-79
2023/01/23 03:31:24;;;;;;;26.00;10.77;;;;;;;;;;4952252;29;20038;-75
2023/01/23 03:33:49;;;;;;;26.00;12.23;;;;;;;;;;4952126;29;20031;-81
2023/01/23 03:36:15;;;;;;;24.13;11.43;;;;;;;;;;4952052;29;20047;-73
2023/01/23 03:41:23;;;;;;;20.00;8.75;;;;;;;;;;4952015;29;20403;-74
2023/01/23 03:41:28;;;;;;;24.95;10.45;;;;;;;;;;4952144;29;20031;-75
2023/01/23 03:43:55;;;;;;;20.67;9.40;;;;;;;;;;4950658;28;20027;-80
2023/01/23 03:46:21;;;;;;;25.80;11.73;;;;;;;;;;4952625;29;20094;-82
2023/01/23 03:48:47;;;;;;;21.15;9.88;;;;;;;;;;4952733;29;20469;-75
2023/01/23 03:51:13;;;;;;;19.23;8.85;;;;;;;;;;4960993;29;20027;-75
2023/01/23 03:53:39;;;;;;;17.63;8.82;;;;;;;;;;4955762;29;20089;-85
2023/01/23 03:56:05;;;;;;;20.48;10.23;;;;;;;;;;4957405;29;20106;-80
2023/01/23 03:58:31;;;;;;;25.83;11.70;;;;;;;;;;4969709;28;20098;-80
2023/01/23 04:00:57;;;;;;;21.48;11.60;;;;;;;;;;4951890;29;20030;-79
2023/01/23 04:03:23;;;;;;;21.70;9.23;;;;;;;;;;4951120;29;20038;-77
2023/01/23 04:05:54;;;;;;;25.67;9.20;;;;;;;;;;4951576;29;20028;-76
2023/01/23 04:08:21;;;;;;;15.73;6.43;;;;;;;;;;4951721;29;20083;-74
2023/01/23 04:10:47;;;;;;;19.73;7.47;;;;;;;;;;4951379;28;20023;-79
2023/01/23 04:13:13;;;;;;;20.13;9.25;;;;;;;;;;4951417;29;20035;-77
2023/01/23 04:15:39;;;;;;;19.15;8.73;;;;;;;;;;4951534;29;20101;-77
2023/01/23 04:18:05;;;;;;;22.55;12.50;;;;;;;;;;4951158;29;20396;-82
2023/01/23 04:20:31;;;;;;;25.13;10.27;;;;;;;;;;4951452;29;20484;-80
2023/01/23 04:22:57;;;;;;;20.08;10.50;;;;;;;;;;4952595;29;20105;-78
2023/01/23 04:25:23;;;;;;;22.75;10.48;;;;;;;;;;4952238;29;20035;-76
2023/01/23 04:27:49;;;;;;;20.75;10.63;;;;;;;;;;4951156;29;20499;-86
2023/01/23 04:30:15;;;;;;;16.88;8.00;;;;;;;;;;4951397;29;20039;-80
2023/01/23 04:32:41;;;;;;;18.13;9.20;;;;;;;;;;4951205;28;20031;-83
2023/01/23 04:35:08;;;;;;;20.17;8.75;;;;;;;;;;4956335;29;20086;-78
2023/01/23 04:37:34;;;;;;;20.38;8.93;;;;;;;;;;4969792;28;20023;-73
2023/01/23 04:40:00;;;;;;;21.75;10.48;;;;;;;;;;4954805;29;20050;-74
2023/01/23 04:42:26;;;;;;;29.02;11.48;;;;;;;;;;4955353;29;20031;-74
2023/01/23 04:44:52;;;;;;;19.67;10.77;;;;;;;;;;4955585;29;20126;-74
2023/01/23 04:47:18;;;;;;;21.92;10.65;;;;;;;;;;4955258;29;20447;-78
2023/01/23 04:49:44;;;;;;;20.10;10.05;;;;;;;;;;4954964;29;20031;-74
2023/01/23 04:52:10;;;;;;;16.00;8.75;;;;;;;;;;4957200;29;20038;-78
2023/01/23 04:54:36;;;;;;;21.67;10.63;;;;;;;;;;4959027;29;20062;-79
2023/01/23 04:57:02;;;;;;;19.85;10.15;;;;;;;;;;4954877;29;20265;-76
2023/01/23 04:59:28;;;;;;;20.30;10.48;;;;;;;;;;4971626;28;20050;-78
2023/01/23 05:01:54;;;;;;;19.85;10.02;;;;;;;;;;4955587;29;20460;-74
2023/01/23 05:04:20;;;;;;;19.02;10.43;;;;;;;;;;4955519;29;20031;-81
2023/01/23 05:06:46;;;;;;;23.33;12.57;;;;;;;;;;4954637;29;20038;-77
2023/01/23 05:09:12;;;;;;;21.52;10.27;;;;;;;;;;4954670;29;20106;-74
2023/01/23 05:11:38;;;;;;;19.58;9.23;;;;;;;;;;4954624;29;20038;-77
2023/01/23 05:14:05;;;;;;;19.00;9.10;;;;;;;;;;4954622;29;20166;-81
2023/01/23 05:16:31;;;;;;;13.75;7.63;;;;;;;;;;4954349;29;20495;-77
2023/01/23 05:18:57;;;;;;;18.85;8.50;;;;;;;;;;4968968;28;20061;-77
2023/01/23 05:21:23;;;;;;;18.75;8.60;;;;;;;;;;4954560;29;20031;-77
2023/01/23 05:23:49;;;;;;;20.10;9.15;;;;;;;;;;4954426;29;20038;-76
2023/01/23 05:26:15;;;;;;;22.73;10.30;;;;;;;;;;4968931;28;20110;-78
2023/01/23 05:28:41;;;;;;;19.65;10.07;;;;;;;;;;4954182;29;20491;-76
2023/01/23 05:31:07;;;;;;;21.42;8.48;;;;;;;;;;4968983;28;20276;-79
2023/01/23 05:33:33;;;;;;;21.67;8.77;;;;;;;;;;4954341;29;20290;-75
2023/01/23 05:36:00;;;;;;;16.98;7.78;;;;;;;;;;4953886;29;20047;-76
2023/01/23 05:38:25;;;;;;;16.23;7.80;;;;;;;;;;4954046;29;20094;-76
2023/01/23 05:40:52;;;;;;;18.13;8.57;;;;;;;;;;4968659;28;20496;-74
2023/01/23 05:43:20;;;;;;;17.45;7.82;;;;;;;;;;4970113;28;20054;-75
2023/01/23 05:45:46;;;;;;;12.98;7.40;;;;;;;;;;4953806;28;20082;-74
2023/01/23 05:48:12;;;;;;;18.80;8.48;;;;;;;;;;4968574;28;20031;-74
2023/01/23 05:50:38;;;;;;;15.30;6.80;;;;;;;;;;4968597;28;20039;-78
2023/01/23 05:53:04;;;;;;;18.67;9.65;;;;;;;;;;4953769;29;20106;-75
2023/01/23 05:55:30;;;;;;;23.65;9.60;;;;;;;;;;4954098;29;20102;-75
2023/01/23 05:57:56;;;;;;;20.70;9.35;;;;;;;;;;4954027;29;20078;-74
2023/01/23 06:00:22;;;;;;;18.48;9.02;;;;;;;;;;4968663;28;20027;-83
2023/01/23 06:02:48;;;;;;;22.95;10.00;;;;;;;;;;4953535;29;20038;-76
2023/01/23 06:05:14;;;;;;;14.05;8.95;;;;;;;;;;4953499;28;20480;-75
2023/01/23 06:07:40;;;;;;;17.10;8.57;;;;;;;;;;4953709;29;20491;-82
2023/01/23 06:10:08;;;;;;;17.00;7.40;;;;;;;;;;4953992;29;20775;-79
2023/01/23 06:12:34;;;;;;;17.55;8.00;;;;;;;;;;4951657;29;20476;-75
2023/01/23 06:15:00;;;;;;;16.20;7.82;;;;;;;;;;4955832;29;20083;-78
2023/01/23 06:17:26;;;;;;;15.20;6.78;;;;;;;;;;4952972;29;20027;-77
2023/01/23 06:19:52;;;;;;;17.40;6.90;;;;;;;;;;4952200;29;20039;-75
2023/01/23 06:22:21;;;;;;;13.25;7.40;;;;;;;;;;4953773;29;20058;-81
2023/01/23 06:24:47;;;;;;;;;;;;;;;;;;4953740;29;20070;-79
2023/01/23 06:27:13;;;;;;;13.07;6.55;;;;;;;;;;4954728;29;20335;-74
2023/01/23 06:29:39;;;;;;;11.20;6.57;;;;;;;;;;4954501;29;20246;-76
2023/01/23 06:32:05;;;;;;;16.77;7.78;;;;;;;;;;4951981;29;20027;-74
2023/01/23 06:34:32;;;;;;;14.50;6.80;;;;;;;;;;4951030;29;20097;-78
2023/01/23 06:36:58;;;;;;;13.32;7.53;;;;;;;;;;4951533;29;20051;-82
2023/01/23 06:39:24;;;;;;;12.75;7.07;;;;;;;;;;4950616;29;20039;-74
2023/01/23 06:41:50;;;;;;;12.35;6.78;;;;;;;;;;4951533;29;20477;-76
2023/01/23 06:44:16;;;;;;;12.52;7.05;;;;;;;;;;4951150;29;20505;-77
2023/01/23 06:46:42;;;;;;;13.60;6.57;;;;;;;;;;4951927;29;20034;-81
2023/01/23 06:49:08;;;;;;;13.90;7.53;;;;;;;;;;4954379;28;20066;-76
2023/01/23 06:51:34;;;;;;;13.60;6.95;;;;;;;;;;4953655;29;20109;-75
2023/01/23 06:54:00;;;;;;;16.95;6.75;;;;;;;;;;4968523;28;20043;-76
2023/01/23 06:56:26;;;;;;;10.05;5.85;;;;;;;;;;4954884;28;20106;-78
2023/01/23 06:58:52;;;;;;;11.30;6.30;;;;;;;;;;4954296;29;20207;-74
2023/01/23 07:01:18;;;;;;;24.48;10.55;;;;;;;;;;4953627;29;20034;-76
2023/01/23 07:03:44;;;;;;;18.27;7.65;;;;;;;;;;4968208;28;20023;-74
2023/01/23 07:06:11;;;;;;;12.35;6.53;;;;;;;;;;4955329;29;20030;-76
2023/01/23 07:08:37;;;;;;;10.00;6.28;;;;;;;;;;4956316;29;20435;-78
2023/01/23 07:11:04;;;;;;;10.52;5.28;;;;;;;;;;4954837;29;20045;-76
2023/01/23 07:13:30;;;;;;;15.52;6.18;;;;;;;;;;4954245;29;20035;-75
2023/01/23 07:15:56;;;;;;;19.10;8.18;;;;;;;;;;4955172;29;20074;-74
2023/01/23 07:18:22;;;;;;;11.85;5.70;;;;;;;;;;4968923;28;20085;-76
2023/01/23 07:20:49;;;;;;;16.40;7.32;;;;;;;;;;4953276;29;20031;-75
2023/01/23 07:23:15;;;;;;;8.25;5.57;;;;;;;;;;4951606;29;20076;-76
2023/01/23 07:25:41;;;;;;;13.63;6.70;;;;;;;;;;4952204;29;20023;-77
2023/01/23 07:28:07;;;;;;;13.82;6.88;;;;;;;;;;4951968;29;20031;-79
2023/01/23 07:30:33;;;;;;;14.50;6.57;;;;;;;;;;4952076;29;20054;-77
2023/01/23 07:33:00;;;;;;;16.73;7.78;;;;;;;;;;4951615;29;20030;-79
2023/01/23 07:35:26;;;;;;;13.45;6.65;;;;;;;;;;4951537;29;20105;-75
2023/01/23 07:37:52;;;;;;;12.30;6.53;;;;;;;;;;4952111;29;20141;-77
2023/01/23 07:40:18;;;;;;;15.80;7.07;;;;;;;;;;4951786;29;20503;-78
2023/01/23 07:42:45;;;;;;;14.00;7.70;;;;;;;;;;4950458;29;20027;-79
2023/01/23 07:45:11;;;;;;;14.73;6.50;;;;;;;;;;4951615;29;20023;-78
2023/01/23 07:47:40;;;;;;;18.08;8.13;;;;;;;;;;4951232;29;20118;-74
2023/01/23 07:50:11;;;;;;;12.55;7.13;;;;;;;;;;4951628;29;20151;-79
2023/01/23 07:52:37;;;;;;;14.60;6.22;;;;;;;;;;4951467;29;20543;-77
2023/01/23 07:55:03;;;;;;;15.90;7.28;;;;;;;;;;4951255;29;20182;-77
2023/01/23 07:57:29;;;;;;;14.20;6.50;;;;;;;;;;4951467;29;20027;-75
2023/01/23 07:59:55;;;;;;;21.88;8.75;;;;;;;;;;4951239;29;20023;-75
2023/01/23 08:02:21;;;;;;;15.18;6.82;;;;;;;;;;4951273;29;20098;-77
2023/01/23 08:04:47;;;;;;;14.10;6.57;;;;;;;;;;4951267;29;20053;-76
2023/01/23 08:07:13;;;;;;;13.60;5.70;;;;;;;;;;4951276;28;20430;-76
2023/01/23 08:09:39;;;;;;;9.68;5.25;;;;;;;;;;4950150;29;20031;-76
2023/01/23 08:12:05;;;;;;;12.30;6.22;;;;;;;;;;4951453;29;20030;-77
2023/01/23 08:14:32;;;;;;;11.35;5.70;;;;;;;;;;4951615;29;20039;-75
2023/01/23 08:16:58;;;;;;;12.57;6.30;;;;;;;;;;4951570;29;20035;-74
2023/01/23 08:19:26;;;;;;;11.27;7.03;;;;;;;;;;4951853;29;20042;-83
2023/01/23 08:21:52;;;;;;;12.38;7.75;;;;;;;;;;4952793;29;20054;-80
2023/01/23 08:24:18;;;;;;;8.98;5.15;;;;;;;;;;4953356;29;20034;-76
2023/01/23 08:26:44;;;;;;;10.32;5.80;;;;;;;;;;4953200;29;20024;-75
2023/01/23 08:29:11;;;;;;;7.50;3.67;;;;;;;;;;4950840;29;20030;-78
2023/01/23 08:31:37;;;;;;;10.38;5.63;;;;;;;;;;4951463;29;20016;-76
2023/01/23 08:34:03;;;;;;;12.45;6.25;;;;;;;;;;4951761;29;20047;-76
2023/01/23 08:36:29;;;;;;;7.95;4.10;;;;;;;;;;4951749;29;20051;-77
2023/01/23 08:38:55;;;;;;;13.73;6.50;;;;;;;;;;4951302;29;20503;-75
2023/01/23 08:41:22;;;;;;;12.70;6.25;;;;;;;;;;4951338;29;20097;-75
2023/01/23 08:43:49;;;;;;;10.98;5.72;;;;;;;;;;4951333;29;20054;-80
2023/01/23 08:46:15;;;;;;;19.35;7.28;;;;;;;;;;4951718;29;20230;-80
2023/01/23 08:48:41;;;;;;;14.95;5.60;;;;;;;;;;4950903;29;20345;-76
2023/01/23 08:51:11;;;;;;;10.88;5.70;;;;;;;;;;4950869;29;20312;-80
2023/01/23 08:53:37;;;;;;;12.93;5.63;;;;;;;;;;4950710;29;20031;-76
2023/01/23 08:56:05;;;;;;;13.23;5.90;;;;;;;;;;4951052;29;20159;-80
2023/01/23 08:58:31;;;;;;;10.73;5.13;;;;;;;;;;4952109;29;20023;-78
2023/01/23 09:00:58;;;;;;;14.85;5.72;;;;;;;;;;4953107;29;20539;-77
2023/01/23 09:03:24;;;;;;;12.60;6.25;;;;;;;;;;4949729;29;20024;-75
2023/01/23 09:05:50;;;;;;;9.80;5.88;;;;;;;;;;4949648;29;20027;-81
2023/01/23 09:08:16;;;;;;;9.90;5.15;;;;;;;;;;4952458;29;20030;-75
2023/01/23 09:10:42;;;;;;;13.13;6.05;;;;;;;;;;4952346;29;20106;-75
2023/01/23 09:13:08;;;;;;;13.35;5.55;;;;;;;;;;4951355;29;20027;-74
2023/01/23 09:15:34;;;;;;;12.02;5.93;;;;;;;;;;4950246;29;20031;-75
2023/01/23 09:18:00;;;;;;;12.98;5.22;;;;;;;;;;4950048;29;20023;-75
2023/01/23 09:20:27;;;;;;;10.77;5.03;;;;;;;;;;4954680;28;20177;-74
2023/01/23 09:22:54;;;;;;;12.00;6.20;;;;;;;;;;4955735;29;20023;-75
2023/01/23 09:25:20;;;;;;;13.60;6.05;;;;;;;;;;4956011;29;20027;-78
2023/01/23 09:27:46;;;;;;;14.52;6.55;;;;;;;;;;4955406;29;20090;-75
2023/01/23 09:30:12;;;;;;;9.82;4.90;;;;;;;;;;4955013;29;20496;-76
2023/01/23 09:32:38;;;;;;;10.82;5.75;;;;;;;;;;4954603;29;20023;-74
2023/01/23 09:35:05;;;;;;;14.15;8.00;;;;;;;;;;4954973;29;20035;-78
2023/01/23 09:40:21;;;;;;;9.38;4.93;;;;;;;;;;4955108;29;20143;-77
2023/01/23 09:42:47;;;;;;;18.33;6.18;;;;;;;;;;4955500;29;20094;-75
2023/01/23 09:45:16;;;;;;;19.30;7.75;;;;;;;;;;4958722;29;20039;-82
2023/01/23 09:47:50;;;;;;;12.45;7.10;;;;;;;;;;4956138;29;20027;-76
2023/01/23 09:50:42;;;;;;;13.40;5.90;;;;;;;;;;4958444;29;20030;-82
2023/01/23 09:53:12;;;;;;;11.20;4.68;;;;;;;;;;4942789;28;20516;-79
2023/01/23 09:55:44;;;;;;;7.43;4.38;;;;;;;;;;4956717;29;20082;-81
2023/01/23 09:58:17;;;;;;;8.50;3.90;;;;;;;;;;4954033;29;20050;-78
2023/01/23 10:00:45;;;;;;;8.43;3.80;;;;;;;;;;4952859;29;20031;-77
2023/01/23 10:03:13;;;;;;;8.35;4.50;;;;;;;;;;4953691;29;20290;-80
2023/01/23 10:05:39;;;;;;;8.52;3.70;;;;;;;;;;4953733;29;20238;-75
2023/01/23 10:08:15;;;;;;;5.68;3.25;;;;;;;;;;4953828;29;20090;-78
2023/01/23 10:10:46;;;;;;;4.65;2.42;;;;;;;;;;4953497;29;20503;-76
2023/01/23 10:13:15;;;;;;;6.72;2.70;;;;;;;;;;4953391;29;20559;-76
2023/01/23 10:15:44;;;;;;;4.90;3.25;;;;;;;;;;4953282;29;20031;-78
2023/01/23 10:18:22;;;;;;;7.70;3.67;;;;;;;;;;4953489;29;20031;-75
2023/01/23 10:20:51;;;;;;;5.45;3.45;;;;;;;;;;4953441;29;20146;-78
2023/01/23 10:23:23;;;;;;;6.45;2.90;;;;;;;;;;4953168;29;20023;-76
2023/01/23 10:25:50;;;;;;;4.63;2.50;;;;;;;;;;4951911;29;20086;-77
2023/01/23 10:28:22;;;;;;;4.20;3.30;;;;;;;;;;4952983;29;20027;-74
2023/01/23 10:30:51;;;;;;;7.20;3.50;;;;;;;;;;4952209;28;20277;-77
2023/01/23 10:33:17;;;;;;;4.35;3.67;;;;;;;;;;4953015;29;20105;-76
2023/01/23 10:35:55;;;;;;;5.47;2.50;;;;;;;;;;4952913;29;20139;-75
2023/01/23 10:38:31;;;;;;;4.20;2.40;;;;;;;;;;4953522;29;20516;-78
2023/01/23 10:41:12;;;;;;;5.95;2.10;;;;;;;;;;4952639;29;20110;-79
2023/01/23 10:43:39;;;;;;;9.45;3.60;;;;;;;;;;4953692;29;20078;-76
2023/01/23 10:46:19;;;;;;;6.90;2.90;;;;;;;;;;4952735;29;20078;-78
2023/01/23 10:48:45;;;;;;;7.82;3.42;;;;;;;;;;4951507;29;20070;-77
2023/01/23 10:51:23;;;;;;;11.43;3.88;;;;;;;;;;4952651;29;20054;-76
2023/01/23 10:54:08;;;;;;;7.50;3.03;;;;;;;;;;4952655;29;20118;-75
2023/01/23 10:56:36;;;;;;;8.02;2.47;;;;;;;;;;4952703;29;20027;-76
2023/01/23 10:59:03;;;;;;;4.95;2.95;;;;;;;;;;4952364;29;20097;-77
2023/01/23 11:01:30;;;;;;;3.53;2.38;;;;;;;;;;4951030;28;20038;-78
2023/01/23 11:03:56;;;;;;;7.88;2.72;;;;;;;;;;4952727;29;20069;-75
2023/01/23 11:06:25;;;;;;;5.85;2.75;;;;;;;;;;4950890;29;20027;-79
2023/01/23 11:09:01;;;;;;;9.82;2.75;;;;;;;;;;4951213;29;20483;-78
2023/01/23 11:11:31;;;;;;;7.90;3.05;;;;;;;;;;4952332;29;20030;-78
2023/01/23 11:14:15;;;;;;;6.65;3.50;;;;;;;;;;4952231;29;20027;-76
2023/01/23 11:16:42;;;;;;;7.38;2.55;;;;;;;;;;4951283;29;20118;-76
2023/01/23 11:19:08;;;;;;;5.75;3.08;;;;;;;;;;4952871;29;20496;-79
2023/01/23 11:21:52;;;;;;;6.43;3.08;;;;;;;;;;4950977;29;20351;-79
2023/01/23 11:24:19;;;;;;;7.22;3.53;;;;;;;;;;4951226;29;20027;-78
2023/01/23 11:26:45;;;;;;;6.72;3.30;;;;;;;;;;4952085;29;20426;-77
2023/01/23 11:29:21;;;;;;;8.38;4.28;;;;;;;;;;4951962;29;20106;-78
2023/01/23 11:31:49;;;;;;;8.02;4.35;;;;;;;;;;4950278;29;20027;-76
2023/01/23 11:34:17;;;;;;;7.40;4.18;;;;;;;;;;4951912;29;20043;-77
2023/01/23 11:37:02;;;;;;;8.43;4.05;;;;;;;;;;4950312;29;20150;-75
2023/01/23 11:39:40;;;;;;;8.25;3.78;;;;;;;;;;4951764;29;20491;-79
2023/01/23 11:42:09;;;;;;;8.15;3.10;;;;;;;;;;4950022;28;20090;-77
2023/01/23 11:44:35;;;;;;;4.82;3.60;;;;;;;;;;4951870;29;20041;-79
2023/01/23 11:47:13;;;;;;;6.65;3.42;;;;;;;;;;4951476;29;20030;-77
2023/01/23 11:49:45;;;;;;;6.03;3.25;;;;;;;;;;4952131;29;20030;-77
2023/01/23 11:52:24;;;;;;;9.88;4.78;;;;;;;;;;4950273;29;20027;-75
2023/01/23 11:54:56;;;;;;;9.40;3.70;;;;;;;;;;4950170;29;20031;-75
2023/01/23 11:57:28;;;;;;;7.25;3.42;;;;;;;;;;4950059;29;20044;-75
2023/01/23 11:59:57;;;;;;;10.73;4.43;;;;;;;;;;4950331;29;20380;-76
2023/01/23 12:02:26;;;;;;;8.52;3.80;;;;;;;;;;4951376;29;20508;-75
2023/01/23 12:04:55;;;;;;;9.95;4.55;;;;;;;;;;4950378;29;20063;-75
2023/01/23 12:07:23;;;;;;;8.90;3.92;;;;;;;;;;4950095;29;20030;-76
2023/01/23 12:10:01;;;;;;;11.98;5.22;;;;;;;;;;4950211;29;20023;-78
2023/01/23 12:12:36;;;;;;;10.50;4.90;;;;;;;;;;4951503;29;20034;-76
2023/01/23 12:15:05;;;;;;;9.30;3.85;;;;;;;;;;4951325;29;20043;-78
2023/01/23 12:17:55;;;;;;;13.38;5.25;;;;;;;;;;4952498;29;20035;-78
2023/01/23 12:20:24;;;;;;;7.93;4.70;;;;;;;;;;4951694;29;20031;-77
2023/01/23 12:22:56;;;;;;;9.98;5.38;;;;;;;;;;4951196;29;20054;-82
2023/01/23 12:25:27;;;;;;;8.70;4.07;;;;;;;;;;4951547;29;20035;-78
2023/01/23 12:28:12;;;;;;;9.23;4.32;;;;;;;;;;4951440;29;20043;-78
2023/01/23 12:30:57;;;;;;;11.75;4.35;;;;;;;;;;4951510;29;20030;-79
2023/01/23 12:33:58;;;;;;;10.25;4.18;;;;;;;;;;4950790;29;20042;-77
2023/01/23 12:36:43;;;;;;;7.78;4.85;;;;;;;;;;4910038;29;20059;-79
2023/01/23 12:39:32;;;;;;;10.07;4.57;;;;;;;;;;4947790;29;20051;-77
2023/01/23 12:42:07;;;;;;;7.68;4.00;;;;;;;;;;4932111;29;20039;-78
2023/01/23 12:44:37;;;;;;;23.60;4.70;;;;;;;;;;4951344;29;20023;-79
2023/01/23 12:47:15;;;;;;;9.98;3.63;;;;;;;;;;4949723;29;20032;-78
2023/01/23 12:49:47;;;;;;;12.52;5.65;;;;;;;;;;4951232;29;20023;-79
2023/01/23 12:52:21;;;;;;;9.88;4.97;;;;;;;;;;4949843;29;20094;-79
2023/01/23 12:55:00;;;;;;;7.75;4.30;;;;;;;;;;4952619;28;20087;-78
2023/01/23 12:57:39;;;;;;;6.55;4.65;;;;;;;;;;4954798;29;20154;-78
2023/01/23 13:00:08;;;;;;;9.30;4.40;;;;;;;;;;4953383;29;20091;-78
2023/01/23 13:02:34;;;;;;;;;;;;;;;;;;4955369;29;20031;-79
2023/01/23 13:05:14;;;;;;;10.35;4.18;;;;;;;;;;4969141;28;19969;-76
2023/01/23 13:07:46;;;;;;;14.52;5.60;;;;;;;;;;4954344;29;20576;-77
2023/01/23 13:10:12;;;;;;;10.07;4.80;;;;;;;;;;4954707;29;20027;-79
2023/01/23 13:12:38;;;;;;;9.95;6.10;;;;;;;;;;4954569;29;20027;-76
2023/01/23 13:15:18;;;;;;;13.82;4.68;;;;;;;;;;4953313;29;20027;-78
2023/01/23 13:17:48;;;;;;;11.52;5.80;;;;;;;;;;4954714;29;20032;-78
2023/01/23 13:23:24;;;;;;;13.00;5.45;;;;;;;;;;4954500;29;20408;-78
2023/01/23 13:26:10;;;;;;;8.68;5.05;;;;;;;;;;4954357;29;20033;-82
2023/01/23 13:28:40;;;;;;;13.40;5.93;;;;;;;;;;4954320;29;20550;-78
2023/01/23 13:31:23;;;;;;;10.40;5.03;;;;;;;;;;4949729;28;20023;-78
2023/01/23 13:33:49;;;;;;;8.02;4.88;;;;;;;;;;4962008;29;20027;-79
2023/01/23 13:36:23;;;;;;;9.57;5.28;;;;;;;;;;4959555;29;20058;-79
2023/01/23 13:39:25;;;;;;;8.93;4.55;;;;;;;;;;4970764;28;20319;-84
2023/01/23 13:41:52;;;;;;;9.27;4.47;;;;;;;;;;4895885;29;20028;-81
2023/01/23 13:44:27;;;;;;;7.10;3.67;;;;;;;;;;4945235;29;20035;-82
2023/01/23 13:46:56;;;;;;;10.82;4.75;;;;;;;;;;4966447;28;20271;-78
2023/01/23 13:57:58;;;;;;;8.20;4.13;;;;;;;;;;4969844;28;20670;-82
2023/01/23 14:00:24;;;;;;;11.40;5.15;;;;;;;;;;4949291;29;20039;-80
2023/01/23 14:05:38;;;;;;;13.45;5.82;;;;;;;;;;4951316;28;20042;-80
2023/01/23 14:08:09;;;;;;;11.18;5.32;;;;;;;;;;4952470;29;20102;-80
2023/01/23 14:10:36;;;;;;;9.25;5.80;;;;;;;;;;4966919;28;20030;-84
2023/01/23 14:13:02;;;;;;;9.77;3.83;;;;;;;;;;4953358;29;20592;-84
2023/01/23 14:18:23;;;;;;;7.50;3.50;;;;;;;;;;4956320;29;20053;-79
2023/01/23 14:20:50;;;;;;;11.05;5.13;;;;;;;;;;4967431;28;20031;-81
2023/01/23 14:23:28;;;;;;;8.88;4.53;;;;;;;;;;4965394;28;20592;-79
2023/01/23 14:25:54;;;;;;;10.18;4.80;;;;;;;;;;4949962;29;20206;-76
2023/01/23 14:28:20;;;;;;;9.90;3.60;;;;;;;;;;4949447;29;20062;-78
2023/01/23 14:30:53;;;;;;;10.35;5.63;;;;;;;;;;4948852;29;20499;-77
2023/01/23 14:33:19;;;;;;;9.02;4.60;;;;;;;;;;4948764;29;20039;-87
2023/01/23 14:35:45;;;;;;;9.57;4.00;;;;;;;;;;4948861;29;20146;-81
2023/01/23 14:38:15;;;;;;;5.60;2.53;;;;;;;;;;4948568;29;20020;-78
2023/01/23 14:40:42;;;;;;;9.18;3.97;;;;;;;;;;4948588;29;20038;-77
2023/01/23 14:43:09;;;;;;;6.80;4.40;;;;;;;;;;4957846;28;20026;-77
2023/01/23 14:45:35;;;;;;;7.30;4.25;;;;;;;;;;4953848;29;20035;-78
2023/01/23 14:48:04;;;;;;;9.90;4.97;;;;;;;;;;4955518;29;20349;-77
2023/01/23 14:50:30;;;;;;;8.70;4.35;;;;;;;;;;4952883;29;20019;-82
2023/01/23 14:52:57;;;;;;;12.88;4.78;;;;;;;;;;4950665;29;20482;-83
2023/01/23 14:55:24;;;;;;;15.15;5.85;;;;;;;;;;4958282;28;20038;-86
2023/01/23 14:57:51;;;;;;;10.82;4.63;;;;;;;;;;4953536;29;20054;-79
2023/01/23 15:00:20;;;;;;;11.70;5.13;;;;;;;;;;4955786;29;20027;-86
2023/01/23 15:02:49;;;;;;;11.88;5.25;;;;;;;;;;4956358;29;20448;-85
2023/01/23 15:05:16;;;;;;;10.10;4.75;;;;;;;;;;4953124;29;20028;-79